createdAt,value
2022-08-01T00:00:09.882Z,67.74
2022-08-01T00:02:40.509Z,67.98
2022-08-01T00:05:08.852Z,68.13
2022-08-01T00:07:36.630Z,68.31
2022-08-01T00:10:12.085Z,68.38
2022-08-01T00:12:38.796Z,68.15
2022-08-01T00:15:06.592Z,68.12
2022-08-01T00:17:33.350Z,68.46
2022-08-01T00:19:59.889Z,68.82
2022-08-01T00:22:26.646Z,69.08
2022-08-01T00:24:53.188Z,68.80
2022-08-01T00:27:19.760Z,69.19
2022-08-01T00:30:09.609Z,69.80
2022-08-01T00:32:33.400Z,69.45
2022-08-01T00:35:00.011Z,69.80
2022-08-01T00:37:26.923Z,70.28
2022-08-01T00:39:53.606Z,70.27
2022-08-01T00:42:20.214Z,69.73
2022-08-01T00:44:46.782Z,69.76
2022-08-01T00:47:13.558Z,70.20
2022-08-01T00:49:40.293Z,70.38
2022-08-01T00:52:09.073Z,70.38
2022-08-01T00:54:36.641Z,69.56
2022-08-01T00:57:03.798Z,69.78
2022-08-01T00:59:31.264Z,69.89
2022-08-01T01:01:58.730Z,69.97
2022-08-01T01:04:25.710Z,69.55
2022-08-01T01:07:16.266Z,69.87
2022-08-01T01:10:01.595Z,69.54
2022-08-01T01:12:38.945Z,70.13
2022-08-01T01:15:23.042Z,70.12
2022-08-01T01:17:56.499Z,70.07
2022-08-01T01:20:28.361Z,69.80
2022-08-01T01:23:23.014Z,70.68
2022-08-01T01:26:04.797Z,69.64
2022-08-01T01:29:09.672Z,70.76
2022-08-01T01:31:56.573Z,69.81
2022-08-01T01:34:24.645Z,69.92
2022-08-01T01:36:54.904Z,69.83
2022-08-01T01:39:23.623Z,69.99
2022-08-01T01:41:51.511Z,70.03
2022-08-01T01:44:19.195Z,70.51
2022-08-01T01:46:46.869Z,70.44
2022-08-01T01:49:13.739Z,69.87
2022-08-01T01:51:42.809Z,70.66
2022-08-01T01:54:22.886Z,70.73
2022-08-01T01:56:51.710Z,70.42
2022-08-01T01:59:25.875Z,70.60
2022-08-01T02:01:58.507Z,70.35
2022-08-01T02:04:35.818Z,70.56
2022-08-01T02:07:02.968Z,70.79
2022-08-01T02:09:30.927Z,70.06
2022-08-01T02:12:09.492Z,70.82
2022-08-01T02:14:37.204Z,70.52
2022-08-01T02:17:04.354Z,70.09
2022-08-01T02:19:31.665Z,70.30
2022-08-01T02:22:02.902Z,70.09
2022-08-01T02:24:41.665Z,70.08
2022-08-01T02:27:16.669Z,69.71
2022-08-01T02:29:48.001Z,70.22
2022-08-01T02:32:20.457Z,70.46
2022-08-01T02:34:50.177Z,69.76
2022-08-01T02:37:17.849Z,69.62
2022-08-01T02:39:48.121Z,69.57
2022-08-01T02:42:16.510Z,70.23
2022-08-01T02:44:45.976Z,70.14
2022-08-01T02:47:13.377Z,69.80
2022-08-01T02:49:53.276Z,70.55
2022-08-01T02:52:23.876Z,70.31
2022-08-01T02:54:54.127Z,69.70
2022-08-01T02:57:22.478Z,70.17
2022-08-01T02:59:51.201Z,70.17
2022-08-01T03:02:19.875Z,70.28
2022-08-01T03:04:48.185Z,70.59
2022-08-01T03:07:16.836Z,70.01
2022-08-01T03:09:45.668Z,70.62
2022-08-01T03:12:26.765Z,70.31
2022-08-01T03:14:56.600Z,70.70
2022-08-01T03:17:27.633Z,70.08
2022-08-01T03:19:58.473Z,70.32
2022-08-01T03:22:28.365Z,70.29
2022-08-01T03:24:56.891Z,70.40
2022-08-01T03:27:25.285Z,70.72
2022-08-01T03:29:55.499Z,70.35
2022-08-01T03:32:22.964Z,70.56
2022-08-01T03:34:49.924Z,70.30
2022-08-01T03:37:27.749Z,70.22
2022-08-01T03:40:30.874Z,70.53
2022-08-01T03:43:03.480Z,70.53
2022-08-01T03:45:39.468Z,70.84
2022-08-01T03:48:16.904Z,71.18
2022-08-01T03:50:47.696Z,71.03
2022-08-01T03:53:15.650Z,70.24
2022-08-01T03:55:44.508Z,70.35
2022-08-01T03:58:12.568Z,70.76
2022-08-01T04:00:39.613Z,70.47
2022-08-01T04:03:08.900Z,70.83
2022-08-01T04:05:35.817Z,70.47
2022-08-01T04:08:02.761Z,71.01
2022-08-01T04:10:30.324Z,70.64
2022-08-01T04:12:56.909Z,70.76
2022-08-01T04:15:23.461Z,71.08
2022-08-01T04:17:50.109Z,70.54
2022-08-01T04:20:16.742Z,70.45
2022-08-01T04:22:43.263Z,70.99
2022-08-01T04:25:35.896Z,71.08
2022-08-01T04:28:04.674Z,70.94
2022-08-01T04:30:34.767Z,70.86
2022-08-01T04:33:03.361Z,70.98
2022-08-01T04:36:03.212Z,71.04
2022-08-01T04:38:24.430Z,70.34
2022-08-01T04:40:53.170Z,71.05
2022-08-01T04:43:19.862Z,70.37
2022-08-01T04:45:48.091Z,70.79
2022-08-01T04:48:17.560Z,71.11
2022-08-01T04:50:44.115Z,71.16
2022-08-01T04:53:19.144Z,70.80
2022-08-01T04:55:47.216Z,70.57
2022-08-01T04:58:18.434Z,71.02
2022-08-01T05:00:48.989Z,71.01
2022-08-01T05:03:15.738Z,71.10
2022-08-01T05:05:42.298Z,70.67
2022-08-01T05:08:08.811Z,70.55
2022-08-01T05:10:35.504Z,70.80
2022-08-01T05:13:03.179Z,71.12
2022-08-01T05:15:29.726Z,70.76
2022-08-01T05:17:56.259Z,71.07
2022-08-01T05:20:22.809Z,70.79
2022-08-01T05:22:49.463Z,71.08
2022-08-01T05:25:20.297Z,70.50
2022-08-01T05:27:47.359Z,71.00
2022-08-01T05:30:15.706Z,70.69
2022-08-01T05:32:42.617Z,71.35
2022-08-01T05:35:09.704Z,70.79
2022-08-01T05:37:36.343Z,71.23
2022-08-01T05:40:03.700Z,71.40
2022-08-01T05:42:30.705Z,70.78
2022-08-01T05:44:57.230Z,71.33
2022-08-01T05:47:23.796Z,71.33
2022-08-01T05:49:50.697Z,71.18
2022-08-01T05:52:17.330Z,71.06
2022-08-01T05:54:43.865Z,70.59
2022-08-01T05:57:11.234Z,70.71
2022-08-01T05:59:38.991Z,71.19
2022-08-01T06:02:05.855Z,71.16
2022-08-01T06:04:32.621Z,70.46
2022-08-01T06:06:59.195Z,70.50
2022-08-01T06:09:25.769Z,70.27
2022-08-01T06:11:52.371Z,70.10
2022-08-01T06:14:18.892Z,70.37
2022-08-01T06:16:45.481Z,70.57
2022-08-01T06:19:12.032Z,70.29
2022-08-01T06:21:38.634Z,69.94
2022-08-01T06:24:05.552Z,70.05
2022-08-01T06:26:32.193Z,69.68
2022-08-01T06:28:58.836Z,70.12
2022-08-01T06:31:26.918Z,69.15
2022-08-01T06:33:56.100Z,69.50
2022-08-01T06:36:22.777Z,69.38
2022-08-01T06:38:49.399Z,69.62
2022-08-01T06:41:16.051Z,69.42
2022-08-01T06:43:42.625Z,68.58
2022-08-01T06:46:09.432Z,69.38
2022-08-01T06:48:36.049Z,68.98
2022-08-01T06:51:02.564Z,68.72
2022-08-01T06:53:31.625Z,68.07
2022-08-01T06:56:01.874Z,68.37
2022-08-01T06:58:30.679Z,67.82
2022-08-01T07:00:58.622Z,67.90
2022-08-01T07:03:44.527Z,67.58
2022-08-01T07:06:13.575Z,68.25
2022-08-01T07:08:41.879Z,67.84
2022-08-01T07:11:08.800Z,67.93
2022-08-01T07:13:43.773Z,67.64
2022-08-01T07:16:15.903Z,67.18
2022-08-01T07:18:42.661Z,67.22
2022-08-01T07:21:16.563Z,66.83
2022-08-01T07:23:55.827Z,67.03
2022-08-01T07:26:22.579Z,66.43
2022-08-01T07:28:49.151Z,66.23
2022-08-01T07:31:15.823Z,66.31
2022-08-01T07:33:48.616Z,66.94
2022-08-01T07:36:19.198Z,66.49
2022-08-01T07:38:46.562Z,66.17
2022-08-01T07:41:13.096Z,66.00
2022-08-01T07:43:40.588Z,66.35
2022-08-01T07:46:07.341Z,65.46
2022-08-01T07:48:34.625Z,65.85
2022-08-01T07:51:01.336Z,65.73
2022-08-01T07:53:27.974Z,65.16
2022-08-01T07:55:54.484Z,65.11
2022-08-01T07:58:21.017Z,64.83
2022-08-01T08:00:47.518Z,65.22
2022-08-01T08:03:14.094Z,65.44
2022-08-01T08:05:58.245Z,64.73
2022-08-01T08:08:27.446Z,65.39
2022-08-01T08:10:54.416Z,64.64
2022-08-01T08:13:21.337Z,64.87
2022-08-01T08:15:48.707Z,64.84
2022-08-01T08:18:15.924Z,64.85
2022-08-01T08:20:42.504Z,64.18
2022-08-01T08:23:09.085Z,64.43
2022-08-01T08:25:35.579Z,64.15
2022-08-01T08:28:02.116Z,63.49
2022-08-01T08:30:28.649Z,63.47
2022-08-01T08:32:55.175Z,63.61
2022-08-01T08:35:40.416Z,63.59
2022-08-01T08:38:08.647Z,62.93
2022-08-01T08:40:38.427Z,62.86
2022-08-01T08:43:06.527Z,62.82
2022-08-01T08:45:59.083Z,62.38
2022-08-01T08:48:21.487Z,62.51
2022-08-01T08:50:56.173Z,62.84
2022-08-01T08:53:23.538Z,62.70
2022-08-01T08:55:55.710Z,62.60
2022-08-01T08:58:30.561Z,62.73
2022-08-01T09:00:59.905Z,62.64
2022-08-01T09:03:26.618Z,62.41
2022-08-01T09:05:53.194Z,62.53
2022-08-01T09:08:19.698Z,62.59
2022-08-01T09:10:46.256Z,62.42
2022-08-01T09:13:14.872Z,62.40
2022-08-01T09:15:45.999Z,61.97
2022-08-01T09:18:32.157Z,61.57
2022-08-01T09:21:10.617Z,61.24
2022-08-01T09:23:54.224Z,61.24
2022-08-01T09:26:41.503Z,61.00
2022-08-01T09:29:17.510Z,61.34
2022-08-01T09:32:06.876Z,60.61
2022-08-01T09:34:33.607Z,60.44
2022-08-01T09:37:03.695Z,59.80
2022-08-01T09:39:35.510Z,60.18
2022-08-01T09:42:18.765Z,59.96
2022-08-01T09:44:55.124Z,59.94
2022-08-01T09:47:23.393Z,59.45
2022-08-01T09:49:56.586Z,59.54
2022-08-01T09:52:28.804Z,58.87
2022-08-01T09:54:58.510Z,58.78
2022-08-01T09:57:25.636Z,58.10
2022-08-01T09:59:59.014Z,57.60
2022-08-01T10:02:29.622Z,57.43
2022-08-01T10:05:03.413Z,57.09
2022-08-01T10:07:43.627Z,56.78
2022-08-01T10:10:13.023Z,56.39
2022-08-01T10:12:45.149Z,56.25
2022-08-01T10:15:12.594Z,56.35
2022-08-01T10:17:50.287Z,56.18
2022-08-01T10:20:30.416Z,55.72
2022-08-01T10:23:05.754Z,55.73
2022-08-01T10:25:41.911Z,55.79
2022-08-01T10:28:23.946Z,54.71
2022-08-01T10:30:52.098Z,55.70
2022-08-01T10:33:52.417Z,54.52
2022-08-01T10:36:10.722Z,54.06
2022-08-01T10:38:37.701Z,53.95
2022-08-01T10:41:06.502Z,53.55
2022-08-01T10:43:33.537Z,51.26
2022-08-01T10:46:04.424Z,50.14
2022-08-01T10:48:43.976Z,49.35
2022-08-01T10:51:17.998Z,48.05
2022-08-01T10:53:53.976Z,46.71
2022-08-01T10:56:22.414Z,45.36
2022-08-01T10:59:06.564Z,45.44
2022-08-01T11:01:44.815Z,44.99
2022-08-01T11:04:17.388Z,44.05
2022-08-01T11:06:50.729Z,43.57
2022-08-01T11:09:37.443Z,43.30
2022-08-01T11:12:23.407Z,43.80
2022-08-01T11:15:17.183Z,43.38
2022-08-01T11:17:56.078Z,44.46
2022-08-01T11:20:28.010Z,43.36
2022-08-01T11:23:00.404Z,43.88
2022-08-01T11:26:05.226Z,43.17
2022-08-01T11:28:36.626Z,45.01
2022-08-01T11:31:03.427Z,44.63
2022-08-01T11:33:46.062Z,43.52
2022-08-01T11:36:14.909Z,44.12
2022-08-01T11:38:58.556Z,44.33
2022-08-01T11:41:38.491Z,43.66
2022-08-01T11:44:10.171Z,42.85
2022-08-01T11:47:00.967Z,43.28
2022-08-01T11:49:34.843Z,42.95
2022-08-01T11:52:12.085Z,43.11
2022-08-01T11:54:41.335Z,43.11
2022-08-01T11:57:33.959Z,42.26
2022-08-01T12:00:08.665Z,43.83
2022-08-01T12:02:41.387Z,42.15
2022-08-01T12:05:12.125Z,42.21
2022-08-01T12:07:40.025Z,41.43
2022-08-01T12:10:11.986Z,42.15
2022-08-01T12:13:03.129Z,40.42
2022-08-01T12:15:35.795Z,40.03
2022-08-01T12:18:04.603Z,39.91
2022-08-01T12:20:34.294Z,40.29
2022-08-01T12:23:07.038Z,39.98
2022-08-01T12:25:34.382Z,39.86
2022-08-01T12:28:06.008Z,40.11
2022-08-01T12:30:34.615Z,40.37
2022-08-01T12:33:01.272Z,40.31
2022-08-01T12:35:30.214Z,40.55
2022-08-01T12:37:59.854Z,40.29
2022-08-01T12:40:29.485Z,40.54
2022-08-01T12:43:07.380Z,40.30
2022-08-01T12:45:40.735Z,40.09
2022-08-01T12:48:21.837Z,40.32
2022-08-01T12:50:50.644Z,39.99
2022-08-01T12:53:17.503Z,39.68
2022-08-01T12:55:58.194Z,39.51
2022-08-01T12:58:32.619Z,39.27
2022-08-01T13:01:11.158Z,40.38
2022-08-01T13:03:38.657Z,40.38
2022-08-01T13:06:17.173Z,39.40
2022-08-01T13:08:45.546Z,40.05
2022-08-01T13:11:14.355Z,39.42
2022-08-01T13:13:43.565Z,39.11
2022-08-01T13:16:12.461Z,39.02
2022-08-01T13:18:50.267Z,39.21
2022-08-01T13:21:19.279Z,38.51
2022-08-01T13:24:09.885Z,38.25
2022-08-01T13:26:50.592Z,37.88
2022-08-01T13:29:18.203Z,38.21
2022-08-01T13:31:45.200Z,39.44
2022-08-01T13:34:11.873Z,38.04
2022-08-01T13:36:38.766Z,38.71
2022-08-01T13:39:06.241Z,38.47
2022-08-01T13:41:35.065Z,37.37
2022-08-01T13:44:01.594Z,36.88
2022-08-01T13:46:29.546Z,37.46
2022-08-01T13:48:56.328Z,37.28
2022-08-01T13:51:22.923Z,37.49
2022-08-01T13:53:49.745Z,37.13
2022-08-01T13:56:16.281Z,37.84
2022-08-01T13:58:42.837Z,36.71
2022-08-01T14:01:09.474Z,36.57
2022-08-01T14:03:36.119Z,36.28
2022-08-01T14:06:03.359Z,36.40
2022-08-01T14:08:29.916Z,35.53
2022-08-01T14:10:57.670Z,35.52
2022-08-01T14:13:24.551Z,35.09
2022-08-01T14:15:57.039Z,34.83
2022-08-01T14:18:23.566Z,34.96
2022-08-01T14:20:53.867Z,35.40
2022-08-01T14:23:25.894Z,34.14
2022-08-01T14:26:03.570Z,33.98
2022-08-01T14:28:32.383Z,34.38
2022-08-01T14:30:59.371Z,34.03
2022-08-01T14:33:26.585Z,33.24
2022-08-01T14:36:05.853Z,32.55
2022-08-01T14:38:40.080Z,32.73
2022-08-01T14:41:06.592Z,31.46
2022-08-01T14:43:33.944Z,30.81
2022-08-01T14:46:04.161Z,30.64
2022-08-01T14:48:30.936Z,30.41
2022-08-01T14:50:58.323Z,30.32
2022-08-01T14:53:24.900Z,30.45
2022-08-01T14:55:51.445Z,30.58
2022-08-01T14:58:17.987Z,30.84
2022-08-01T15:00:44.551Z,30.29
2022-08-01T15:03:11.132Z,30.37
2022-08-01T15:05:37.703Z,30.45
2022-08-01T15:08:05.140Z,30.58
2022-08-01T15:10:31.704Z,30.23
2022-08-01T15:12:58.552Z,29.49
2022-08-01T15:15:25.044Z,28.78
2022-08-01T15:17:51.614Z,28.45
2022-08-01T15:20:18.103Z,28.13
2022-08-01T15:22:45.150Z,28.02
2022-08-01T15:25:11.763Z,27.68
2022-08-01T15:27:38.337Z,27.35
2022-08-01T15:30:05.439Z,27.16
2022-08-01T15:32:31.992Z,27.24
2022-08-01T15:34:58.581Z,28.05
2022-08-01T15:37:25.175Z,27.98
2022-08-01T15:39:54.719Z,27.89
2022-08-01T15:42:25.398Z,28.32
2022-08-01T15:44:53.186Z,27.42
2022-08-01T15:47:19.700Z,27.41
2022-08-01T15:49:46.299Z,26.98
2022-08-01T15:52:21.987Z,26.51
2022-08-01T15:54:49.776Z,26.42
2022-08-01T15:57:16.590Z,26.93
2022-08-01T15:59:43.192Z,26.88
2022-08-01T16:02:10.311Z,26.63
2022-08-01T16:04:38.853Z,26.94
2022-08-01T16:07:06.176Z,26.10
2022-08-01T16:09:32.824Z,26.02
2022-08-01T16:11:59.353Z,25.66
2022-08-01T16:14:25.932Z,26.19
2022-08-01T16:16:55.045Z,26.21
2022-08-01T16:19:21.663Z,26.72
2022-08-01T16:21:48.465Z,27.25
2022-08-01T16:24:15.062Z,27.50
2022-08-01T16:26:41.791Z,27.44
2022-08-01T16:29:08.383Z,28.16
2022-08-01T16:31:37.085Z,28.19
2022-08-01T16:34:10.403Z,28.12
2022-08-01T16:36:40.409Z,28.39
2022-08-01T16:39:06.911Z,28.68
2022-08-01T16:41:37.623Z,27.27
2022-08-01T16:44:04.522Z,26.61
2022-08-01T16:46:33.067Z,25.73
2022-08-01T16:48:59.675Z,25.28
2022-08-01T16:51:26.227Z,24.23
2022-08-01T16:53:53.195Z,24.54
2022-08-01T16:56:20.649Z,24.67
2022-08-01T16:58:47.217Z,24.66
2022-08-01T17:01:57.828Z,25.30
2022-08-01T17:04:01.477Z,25.02
2022-08-01T17:06:29.548Z,25.10
2022-08-01T17:08:56.184Z,25.31
2022-08-01T17:11:22.740Z,25.11
2022-08-01T17:13:49.405Z,25.81
2022-08-01T17:16:16.070Z,25.51
2022-08-01T17:18:42.711Z,25.54
2022-08-01T17:21:09.226Z,25.47
2022-08-01T17:23:35.820Z,25.60
2022-08-01T17:26:02.582Z,25.62
2022-08-01T17:28:29.203Z,26.03
2022-08-01T17:30:55.868Z,25.91
2022-08-01T17:33:22.476Z,26.79
2022-08-01T17:35:48.994Z,26.88
2022-08-01T17:38:15.952Z,26.95
2022-08-01T17:40:43.872Z,26.65
2022-08-01T17:43:10.488Z,26.81
2022-08-01T17:45:48.864Z,27.35
2022-08-01T17:48:17.670Z,27.19
2022-08-01T17:50:45.221Z,27.43
2022-08-01T17:53:12.263Z,27.56
2022-08-01T17:55:55.421Z,28.29
2022-08-01T17:58:49.739Z,27.90
2022-08-01T18:01:15.229Z,28.44
2022-08-01T18:03:42.199Z,28.63
2022-08-01T18:06:09.759Z,28.77
2022-08-01T18:08:36.412Z,29.16
2022-08-01T18:11:03.098Z,29.57
2022-08-01T18:13:29.917Z,29.66
2022-08-01T18:15:57.086Z,29.90
2022-08-01T18:18:33.729Z,30.06
2022-08-01T18:21:04.346Z,30.30
2022-08-01T18:23:31.390Z,30.38
2022-08-01T18:25:57.899Z,30.41
2022-08-01T18:28:31.393Z,30.63
2022-08-01T18:31:02.060Z,30.52
2022-08-01T18:33:28.622Z,31.04
2022-08-01T18:35:55.134Z,31.21
2022-08-01T18:38:27.341Z,31.45
2022-08-01T18:40:53.851Z,31.65
2022-08-01T18:43:20.669Z,31.08
2022-08-01T18:45:47.205Z,31.46
2022-08-01T18:48:13.775Z,31.83
2022-08-01T18:50:40.317Z,31.70
2022-08-01T18:53:06.907Z,31.91
2022-08-01T18:55:33.459Z,32.19
2022-08-01T18:58:00.049Z,32.38
2022-08-01T19:00:26.582Z,32.73
2022-08-01T19:02:53.138Z,32.48
2022-08-01T19:05:19.796Z,33.34
2022-08-01T19:08:05.954Z,33.68
2022-08-01T19:10:33.202Z,34.69
2022-08-01T19:12:59.712Z,35.29
2022-08-01T19:15:26.277Z,36.91
2022-08-01T19:17:52.796Z,38.21
2022-08-01T19:20:19.664Z,39.62
2022-08-01T19:22:46.183Z,40.42
2022-08-01T19:25:14.921Z,40.91
2022-08-01T19:27:46.872Z,41.83
2022-08-01T19:30:14.345Z,42.33
2022-08-01T19:32:44.322Z,42.80
2022-08-01T19:35:13.131Z,43.08
2022-08-01T19:37:41.440Z,43.36
2022-08-01T19:40:08.463Z,43.00
2022-08-01T19:42:40.336Z,43.83
2022-08-01T19:45:07.947Z,43.60
2022-08-01T19:47:56.012Z,44.06
2022-08-01T19:50:21.139Z,44.61
2022-08-01T19:52:51.535Z,45.67
2022-08-01T19:55:18.892Z,45.19
2022-08-01T19:57:59.355Z,45.73
2022-08-01T20:00:37.306Z,46.76
2022-08-01T20:03:04.839Z,46.32
2022-08-01T20:05:31.450Z,47.09
2022-08-01T20:07:58.541Z,47.25
2022-08-01T20:10:25.083Z,47.57
2022-08-01T20:12:52.536Z,48.11
2022-08-01T20:15:19.511Z,48.26
2022-08-01T20:17:46.105Z,47.84
2022-08-01T20:20:12.668Z,48.73
2022-08-01T20:22:40.897Z,48.58
2022-08-01T20:25:09.201Z,49.81
2022-08-01T20:27:37.858Z,49.87
2022-08-01T20:30:06.329Z,49.96
2022-08-01T20:32:37.260Z,50.24
2022-08-01T20:35:04.442Z,50.76
2022-08-01T20:38:04.171Z,50.20
2022-08-01T20:40:25.049Z,50.70
2022-08-01T20:42:53.572Z,51.29
2022-08-01T20:45:21.863Z,51.02
2022-08-01T20:47:49.683Z,51.49
2022-08-01T20:50:50.681Z,51.83
2022-08-01T20:53:06.007Z,51.52
2022-08-01T20:55:42.681Z,51.82
2022-08-01T20:58:10.760Z,52.40
2022-08-01T21:00:39.033Z,52.68
2022-08-01T21:03:16.146Z,52.54
2022-08-01T21:05:55.820Z,52.74
2022-08-01T21:08:44.567Z,53.16
2022-08-01T21:11:19.547Z,52.94
2022-08-01T21:13:46.505Z,52.96
2022-08-01T21:16:23.556Z,53.04
2022-08-01T21:19:21.851Z,53.44
2022-08-01T21:21:56.871Z,53.18
2022-08-01T21:24:34.040Z,53.12
2022-08-01T21:27:02.230Z,53.19
2022-08-01T21:29:28.960Z,52.97
2022-08-01T21:31:55.856Z,52.50
2022-08-01T21:34:24.904Z,52.78
2022-08-01T21:36:51.461Z,52.54
2022-08-01T21:39:18.156Z,52.31
2022-08-01T21:42:03.375Z,52.26
2022-08-01T21:44:33.784Z,51.81
2022-08-01T21:47:01.222Z,52.42
2022-08-01T21:49:27.929Z,51.39
2022-08-01T21:52:00.249Z,52.03
2022-08-01T21:54:39.609Z,51.38
2022-08-01T21:57:24.104Z,51.63
2022-08-01T22:00:11.422Z,50.67
2022-08-01T22:03:12.140Z,49.68
2022-08-01T22:05:50.241Z,49.83
2022-08-01T22:08:26.981Z,50.15
2022-08-01T22:10:58.982Z,50.20
2022-08-01T22:13:25.646Z,50.31
2022-08-01T22:15:56.426Z,48.26
2022-08-01T22:18:25.470Z,47.93
2022-08-01T22:20:52.985Z,48.28
2022-08-01T22:23:21.476Z,46.91
2022-08-01T22:25:54.579Z,46.96
2022-08-01T22:28:22.638Z,46.36
2022-08-01T22:30:51.303Z,46.29
2022-08-01T22:33:18.906Z,45.18
2022-08-01T22:35:48.551Z,44.62
2022-08-01T22:38:17.950Z,44.37
2022-08-01T22:40:49.133Z,43.60
2022-08-01T22:43:38.418Z,43.06
2022-08-01T22:46:15.217Z,43.11
2022-08-01T22:48:52.404Z,42.88
2022-08-01T22:51:54.880Z,42.10
2022-08-01T22:54:28.963Z,42.34
2022-08-01T22:56:57.122Z,42.44
2022-08-01T22:59:43.044Z,41.93
2022-08-01T23:02:14.589Z,41.90
2022-08-01T23:04:49.362Z,41.51
2022-08-01T23:07:22.809Z,41.83
2022-08-01T23:09:54.277Z,41.52
2022-08-01T23:12:24.602Z,41.27
2022-08-01T23:14:57.847Z,41.13
2022-08-01T23:17:28.940Z,41.10
2022-08-01T23:20:01.615Z,41.49
2022-08-01T23:22:31.232Z,41.51
2022-08-01T23:25:05.566Z,41.53
2022-08-01T23:27:54.199Z,41.26
2022-08-01T23:30:27.925Z,41.49
2022-08-01T23:32:54.926Z,41.25
2022-08-01T23:35:21.489Z,41.57
2022-08-01T23:37:48.096Z,41.61
2022-08-01T23:40:14.668Z,41.71
2022-08-01T23:42:41.259Z,41.42
2022-08-01T23:45:08.224Z,41.65
2022-08-01T23:47:34.796Z,41.65
2022-08-01T23:50:01.429Z,41.85
2022-08-01T23:52:29.996Z,41.75
2022-08-01T23:54:59.987Z,41.82
2022-08-01T23:57:41.617Z,42.20
